createdAt,value
2017-09-30T00:05:50.000Z,61.079
2017-09-30T00:15:50.000Z,61.085
2017-09-30T00:25:50.000Z,61.116
2017-09-30T00:35:50.000Z,61.135
2017-09-30T00:45:50.000Z,61.166
2017-09-30T00:55:50.000Z,61.237
2017-09-30T01:05:50.000Z,61.246
2017-09-30T01:15:50.000Z,61.296
2017-09-30T01:25:50.000Z,61.329
2017-09-30T01:35:50.000Z,61.39
2017-09-30T01:45:50.000Z,61.452
2017-09-30T01:55:50.000Z,61.516
2017-09-30T02:05:50.000Z,61.513
2017-09-30T02:15:50.000Z,61.543
2017-09-30T02:25:50.000Z,61.509
2017-09-30T02:35:50.000Z,61.55
2017-09-30T02:45:50.000Z,61.557
2017-09-30T02:55:50.000Z,61.599
2017-09-30T03:05:50.000Z,61.607
2017-09-30T03:15:50.000Z,61.616
2017-09-30T03:25:50.000Z,61.593
2017-09-30T03:35:50.000Z,61.644
2017-09-30T04:05:50.000Z,61.649
2017-09-30T04:15:50.000Z,61.679
2017-09-30T04:25:50.000Z,61.709
2017-09-30T04:35:50.000Z,61.727
2017-09-30T04:55:50.000Z,61.669
2017-09-30T05:05:50.000Z,61.733
2017-09-30T05:15:50.000Z,61.772
2017-09-30T05:25:50.000Z,61.771
2017-09-30T05:35:50.000Z,61.812
2017-09-30T05:45:50.000Z,61.788
2017-09-30T05:55:50.000Z,61.819
2017-09-30T06:05:50.000Z,61.807
2017-09-30T06:15:50.000Z,61.805
2017-09-30T06:25:50.000Z,61.783
2017-09-30T06:35:51.000Z,61.706
2017-09-30T06:45:50.000Z,61.684
2017-09-30T06:55:51.000Z,61.619
2017-09-30T07:05:51.000Z,61.5
2017-09-30T07:15:51.000Z,61.488
2017-09-30T07:25:51.000Z,61.476
2017-09-30T07:35:51.000Z,61.508
2017-09-30T07:45:51.000Z,61.465
2017-09-30T07:55:51.000Z,61.465
2017-09-30T08:05:51.000Z,61.539
2017-09-30T08:15:51.000Z,61.539
2017-09-30T08:25:51.000Z,61.495
2017-09-30T08:35:51.000Z,61.368
2017-09-30T08:45:51.000Z,61.242
2017-09-30T08:55:51.000Z,61.148
2017-09-30T09:05:51.000Z,61.321
2017-09-30T09:15:52.000Z,62.124
2017-09-30T09:25:51.000Z,62.533
2017-09-30T09:35:51.000Z,62.59
2017-09-30T09:45:51.000Z,62.718
2017-09-30T09:55:51.000Z,62.572
2017-09-30T10:05:51.000Z,62.636
2017-09-30T10:15:51.000Z,62.404
2017-09-30T10:25:51.000Z,62.333
2017-09-30T10:35:51.000Z,62.274
2017-09-30T10:45:51.000Z,63.409
2017-09-30T10:55:51.000Z,63.386
2017-09-30T11:05:51.000Z,63.213
2017-09-30T11:15:51.000Z,63.201
2017-09-30T11:25:51.000Z,63.046
2017-09-30T11:35:51.000Z,63.074
2017-09-30T11:45:51.000Z,62.998
2017-09-30T11:55:51.000Z,62.911
2017-09-30T12:05:51.000Z,62.779
2017-09-30T12:15:51.000Z,62.868
2017-09-30T12:25:51.000Z,62.976
2017-09-30T12:35:51.000Z,63.217
2017-09-30T12:45:51.000Z,63.669
2017-09-30T12:55:51.000Z,63.858
2017-09-30T13:05:51.000Z,64.214
2017-09-30T13:15:51.000Z,64.715
2017-09-30T13:25:51.000Z,64.924
2017-09-30T13:35:51.000Z,65.295
2017-09-30T13:45:51.000Z,65.096
2017-09-30T13:55:51.000Z,64.878
2017-09-30T14:05:51.000Z,64.404
2017-09-30T14:15:51.000Z,64.197
2017-09-30T14:25:51.000Z,63.984
2017-09-30T14:35:52.000Z,63.837
2017-09-30T14:45:52.000Z,63.559
2017-09-30T14:55:52.000Z,63.765
2017-09-30T15:05:52.000Z,63.663
2017-09-30T15:15:52.000Z,63.444
2017-09-30T15:25:52.000Z,63.15
2017-09-30T15:35:52.000Z,62.847
2017-09-30T15:45:52.000Z,62.833
2017-09-30T15:55:52.000Z,62.82
2017-09-30T16:05:52.000Z,62.613
2017-09-30T16:15:52.000Z,61.966
2017-09-30T16:25:52.000Z,62.191
2017-09-30T16:35:52.000Z,62.362
2017-09-30T16:45:52.000Z,62.82
2017-09-30T16:55:52.000Z,63.472
2017-09-30T17:05:52.000Z,63.641
2017-09-30T17:15:52.000Z,63.689
2017-09-30T17:25:52.000Z,63.954
2017-09-30T17:35:52.000Z,63.982
2017-09-30T17:45:52.000Z,63.96
2017-09-30T17:55:52.000Z,63.644
2017-09-30T18:05:52.000Z,63.352
2017-09-30T18:15:52.000Z,62.95
2017-09-30T18:25:52.000Z,62.76
2017-09-30T18:35:52.000Z,62.325
2017-09-30T18:45:52.000Z,62.678
2017-09-30T18:55:52.000Z,62.251
2017-09-30T19:05:52.000Z,62.247
2017-09-30T19:15:52.000Z,62.199
2017-09-30T19:25:52.000Z,62.194
2017-09-30T19:35:52.000Z,62.325
2017-09-30T19:45:52.000Z,62.306
2017-09-30T19:55:52.000Z,62.21
2017-09-30T20:05:52.000Z,62.128
2017-09-30T20:15:52.000Z,62.549
2017-09-30T20:25:52.000Z,62.089
2017-09-30T20:35:52.000Z,62.175
2017-09-30T20:45:52.000Z,62.081
2017-09-30T20:55:52.000Z,62.104
2017-09-30T21:05:52.000Z,62.38
2017-09-30T21:15:52.000Z,62.59
2017-09-30T21:25:52.000Z,62.853
2017-09-30T21:35:52.000Z,62.973
2017-09-30T21:45:52.000Z,63.126
2017-09-30T21:55:53.000Z,63.175
2017-09-30T22:05:52.000Z,63.339
2017-09-30T22:15:53.000Z,63.368
2017-09-30T22:25:53.000Z,63.458
2017-09-30T22:35:53.000Z,63.546
2017-09-30T22:45:53.000Z,63.586
2017-09-30T22:55:53.000Z,63.623
2017-09-30T23:05:53.000Z,63.705
2017-09-30T23:15:53.000Z,63.753
2017-09-30T23:25:54.000Z,63.803
2017-09-30T23:35:53.000Z,63.94
2017-09-30T23:45:53.000Z,64.001
2017-09-30T23:55:53.000Z,63.987
